createdAt,value
2019-01-22T00:00:27.910Z,1003.03
2019-01-22T00:01:27.890Z,1003.01
2019-01-22T00:02:27.867Z,1003.02
2019-01-22T00:03:27.838Z,1002.98
2019-01-22T00:04:27.839Z,1003.01
2019-01-22T00:05:27.789Z,1002.93
2019-01-22T00:06:27.761Z,1002.91
2019-01-22T00:07:27.789Z,1002.93
2019-01-22T00:08:27.732Z,1002.90
2019-01-22T00:09:27.698Z,1002.91
2019-01-22T00:10:27.680Z,1002.90
2019-01-22T00:11:27.646Z,1002.89
2019-01-22T00:12:27.636Z,1002.87
2019-01-22T00:13:27.647Z,1002.85
2019-01-22T00:14:27.591Z,1002.86
2019-01-22T00:15:27.564Z,1002.86
2019-01-22T00:16:27.555Z,1002.85
2019-01-22T00:17:27.656Z,1002.83
2019-01-22T00:18:27.496Z,1002.81
2019-01-22T00:19:27.481Z,1002.83
2019-01-22T00:20:27.447Z,1002.81
2019-01-22T00:21:27.418Z,1002.80
2019-01-22T00:22:27.417Z,1002.79
2019-01-22T00:23:27.401Z,1002.77
2019-01-22T00:24:27.370Z,1002.71
2019-01-22T00:25:27.331Z,1002.69
2019-01-22T00:26:27.309Z,1002.70
2019-01-22T00:27:27.283Z,1002.66
2019-01-22T00:28:27.299Z,1002.64
2019-01-22T00:29:27.263Z,1002.65
2019-01-22T00:30:27.233Z,1002.62
2019-01-22T00:31:27.189Z,1002.60
2019-01-22T00:32:27.238Z,1002.56
2019-01-22T00:33:27.161Z,1002.52
2019-01-22T00:34:27.138Z,1002.52
2019-01-22T00:35:27.123Z,1002.49
2019-01-22T00:36:27.075Z,1002.45
2019-01-22T00:37:27.064Z,1002.43
2019-01-22T00:38:27.077Z,1002.41
2019-01-22T00:39:27.021Z,1002.35
2019-01-22T00:40:27.002Z,1002.34
2019-01-22T00:41:26.981Z,1002.35
2019-01-22T00:42:26.959Z,1002.31
2019-01-22T00:43:26.954Z,1002.26
2019-01-22T00:44:26.894Z,1002.23
2019-01-22T00:45:26.875Z,1002.23
2019-01-22T00:46:26.863Z,1002.21
2019-01-22T00:47:26.846Z,1002.13
2019-01-22T00:48:26.839Z,1002.13
2019-01-22T00:49:26.792Z,1002.11
2019-01-22T00:50:26.827Z,1002.13
2019-01-22T00:51:26.755Z,1002.19
2019-01-22T00:52:26.721Z,1002.17
2019-01-22T00:53:26.708Z,1002.16
2019-01-22T00:54:26.688Z,1002.12
2019-01-22T00:55:26.655Z,1002.11
2019-01-22T00:56:26.627Z,1002.07
2019-01-22T00:57:26.621Z,1002.07
2019-01-22T00:58:26.595Z,1002.10
2019-01-22T00:59:26.566Z,1002.07
2019-01-22T01:00:26.533Z,1002.07
2019-01-22T01:01:26.522Z,1002.03
2019-01-22T01:02:26.487Z,1002.07
2019-01-22T01:03:26.465Z,1002.06
2019-01-22T01:04:26.440Z,1002.03
2019-01-22T01:05:26.453Z,1002.05
2019-01-22T01:06:26.402Z,1002.03
2019-01-22T01:07:26.372Z,1002.02
2019-01-22T01:08:26.365Z,1002.02
2019-01-22T01:09:26.325Z,1002.00
2019-01-22T01:10:26.333Z,1002.01
2019-01-22T01:11:26.282Z,1002.05
2019-01-22T01:12:26.261Z,1002.01
2019-01-22T01:13:26.246Z,1002.02
2019-01-22T01:14:26.296Z,1001.98
2019-01-22T01:15:26.196Z,1001.97
2019-01-22T01:16:26.165Z,1001.98
2019-01-22T01:17:26.144Z,1001.97
2019-01-22T01:18:26.135Z,1001.95
2019-01-22T01:19:26.108Z,1001.92
2019-01-22T01:20:26.123Z,1001.93
2019-01-22T01:21:26.049Z,1001.91
2019-01-22T01:22:26.044Z,1001.87
2019-01-22T01:23:26.034Z,1001.90
2019-01-22T01:24:25.985Z,1001.87
2019-01-22T01:25:26.002Z,1001.87
2019-01-22T01:26:25.965Z,1001.83
2019-01-22T01:27:25.912Z,1001.82
2019-01-22T01:28:25.890Z,1001.82
2019-01-22T01:29:25.864Z,1001.84
2019-01-22T01:30:25.843Z,1001.80
2019-01-22T01:31:25.827Z,1001.81
2019-01-22T01:32:25.796Z,1001.81
2019-01-22T01:33:25.770Z,1001.75
2019-01-22T01:34:25.748Z,1001.74
2019-01-22T01:35:25.801Z,1001.73
2019-01-22T01:36:25.769Z,1001.74
2019-01-22T01:37:25.680Z,1001.72
2019-01-22T01:38:25.674Z,1001.67
2019-01-22T01:39:25.648Z,1001.70
2019-01-22T01:40:25.620Z,1001.70
2019-01-22T01:41:25.599Z,1001.70
2019-01-22T01:42:25.568Z,1001.68
2019-01-22T01:43:25.544Z,1001.67
2019-01-22T01:44:25.542Z,1001.65
2019-01-22T01:45:25.492Z,1001.64
2019-01-22T01:46:25.474Z,1001.63
2019-01-22T01:47:25.460Z,1001.63
2019-01-22T01:48:25.424Z,1001.57
2019-01-22T01:49:25.563Z,1001.56
2019-01-22T01:50:25.387Z,1001.52
2019-01-22T01:51:25.353Z,1001.53
2019-01-22T01:52:25.333Z,1001.50
2019-01-22T01:53:25.320Z,1001.52
2019-01-22T01:54:25.304Z,1001.49
2019-01-22T01:55:25.309Z,1001.48
2019-01-22T01:56:25.258Z,1001.46
2019-01-22T01:57:25.223Z,1001.45
2019-01-22T01:58:25.193Z,1001.46
2019-01-22T01:59:25.181Z,1001.46
2019-01-22T02:00:25.183Z,1001.42
2019-01-22T02:01:25.135Z,1001.43
2019-01-22T02:02:25.099Z,1001.35
2019-01-22T02:03:25.074Z,1001.37
2019-01-22T02:04:25.554Z,1001.30
2019-01-22T02:05:25.071Z,1001.30
2019-01-22T02:06:25.017Z,1001.29
2019-01-22T02:07:24.992Z,1001.24
2019-01-22T02:08:24.960Z,1001.22
2019-01-22T02:09:24.939Z,1001.19
2019-01-22T02:10:24.954Z,1001.22
2019-01-22T02:11:24.903Z,1001.13
2019-01-22T02:12:24.882Z,1001.11
2019-01-22T02:13:24.852Z,1001.11
2019-01-22T02:14:24.825Z,1001.08
2019-01-22T02:15:24.808Z,1001.09
2019-01-22T02:16:24.925Z,1001.08
2019-01-22T02:17:24.751Z,1001.04
2019-01-22T02:18:24.736Z,1001.02
2019-01-22T02:19:24.717Z,1001.03
2019-01-22T02:20:24.686Z,1000.99
2019-01-22T02:21:24.670Z,1000.98
2019-01-22T02:22:24.653Z,1000.94
2019-01-22T02:23:30.505Z,1000.97
2019-01-22T02:24:24.599Z,1000.94
2019-01-22T02:25:24.566Z,1000.89
2019-01-22T02:26:24.554Z,1000.92
2019-01-22T02:27:24.604Z,1000.81
2019-01-22T02:28:24.500Z,1000.85
2019-01-22T02:29:24.479Z,1000.84
2019-01-22T02:30:24.458Z,1000.80
2019-01-22T02:31:24.435Z,1000.75
2019-01-22T02:32:24.419Z,1000.73
2019-01-22T02:33:24.431Z,1000.68
2019-01-22T02:34:24.371Z,1000.71
2019-01-22T02:35:24.340Z,1000.66
2019-01-22T02:36:24.328Z,1000.63
2019-01-22T02:37:24.349Z,1000.60
2019-01-22T02:38:24.289Z,1000.58
2019-01-22T02:39:24.249Z,1000.56
2019-01-22T02:40:24.245Z,1000.62
2019-01-22T02:41:24.208Z,1000.57
2019-01-22T02:42:24.176Z,1000.53
2019-01-22T02:43:24.294Z,1000.53
2019-01-22T02:44:24.135Z,1000.54
2019-01-22T02:45:24.103Z,1000.54
2019-01-22T02:46:24.079Z,1000.50
2019-01-22T02:47:24.067Z,1000.52
2019-01-22T02:48:24.028Z,1000.45
2019-01-22T02:49:24.038Z,1000.45
2019-01-22T02:50:23.980Z,1000.43
2019-01-22T02:51:23.963Z,1000.41
2019-01-22T02:52:23.949Z,1000.39
2019-01-22T02:53:23.924Z,1000.39
2019-01-22T02:54:23.933Z,1000.38
2019-01-22T02:55:23.931Z,1000.35
2019-01-22T02:56:23.846Z,1000.33
2019-01-22T02:57:23.838Z,1000.31
2019-01-22T02:58:23.794Z,1000.26
2019-01-22T02:59:23.788Z,1000.30
2019-01-22T03:00:23.761Z,1000.27
2019-01-22T03:01:23.773Z,1000.26
2019-01-22T03:02:23.700Z,1000.23
2019-01-22T03:03:23.683Z,1000.17
2019-01-22T03:04:23.725Z,1000.19
2019-01-22T03:05:23.635Z,1000.19
2019-01-22T03:06:23.619Z,1000.13
2019-01-22T03:07:23.586Z,1000.16
2019-01-22T03:08:23.559Z,1000.17
2019-01-22T03:09:23.544Z,1000.06
2019-01-22T03:10:23.650Z,1000.07
2019-01-22T03:11:23.504Z,1000.05
2019-01-22T03:12:23.478Z,1000.03
2019-01-22T03:13:23.441Z,1000.01
2019-01-22T03:14:23.428Z,1000.00
2019-01-22T03:15:23.406Z,999.98
2019-01-22T03:16:23.408Z,999.96
2019-01-22T03:17:23.505Z,999.98
2019-01-22T03:18:23.336Z,999.96
2019-01-22T03:19:23.307Z,999.94
2019-01-22T03:20:23.288Z,999.93
2019-01-22T03:21:23.264Z,999.95
2019-01-22T03:22:23.282Z,999.92
2019-01-22T03:23:23.244Z,999.91
2019-01-22T03:24:23.183Z,999.88
2019-01-22T03:25:23.158Z,999.87
2019-01-22T03:26:23.139Z,999.87
2019-01-22T03:27:23.112Z,999.85
2019-01-22T03:28:23.142Z,999.84
2019-01-22T03:29:23.070Z,999.85
2019-01-22T03:30:23.049Z,999.83
2019-01-22T03:31:23.025Z,999.82
2019-01-22T03:32:23.016Z,999.79
2019-01-22T03:33:22.983Z,999.76
2019-01-22T03:34:22.975Z,999.78
2019-01-22T03:35:22.927Z,999.73
2019-01-22T03:36:22.905Z,999.72
2019-01-22T03:37:22.885Z,999.72
2019-01-22T03:38:22.900Z,999.68
2019-01-22T03:39:22.829Z,999.66
2019-01-22T03:40:22.810Z,999.63
2019-01-22T03:41:22.781Z,999.62
2019-01-22T03:42:22.764Z,999.60
2019-01-22T03:43:22.773Z,999.59
2019-01-22T03:44:22.707Z,999.59
2019-01-22T03:45:22.796Z,999.59
2019-01-22T03:46:22.667Z,999.56
2019-01-22T03:47:22.639Z,999.52
2019-01-22T03:48:22.615Z,999.48
2019-01-22T03:49:22.727Z,999.43
2019-01-22T03:50:22.565Z,999.45
2019-01-22T03:51:22.554Z,999.41
2019-01-22T03:52:22.526Z,999.46
2019-01-22T03:53:22.493Z,999.41
2019-01-22T03:54:22.476Z,999.44
2019-01-22T03:55:22.503Z,999.41
2019-01-22T03:56:22.441Z,999.42
2019-01-22T03:57:22.399Z,999.41
2019-01-22T03:58:22.380Z,999.40
2019-01-22T03:59:22.358Z,999.40
2019-01-22T04:00:22.330Z,999.40
2019-01-22T04:01:22.346Z,999.41
2019-01-22T04:02:22.289Z,999.39
2019-01-22T04:03:22.262Z,999.37
2019-01-22T04:04:22.233Z,999.37
2019-01-22T04:05:22.229Z,999.41
2019-01-22T04:06:22.234Z,999.38
2019-01-22T04:07:22.159Z,999.32
2019-01-22T04:08:22.137Z,999.29
2019-01-22T04:09:22.132Z,999.31
2019-01-22T04:10:22.095Z,999.31
2019-01-22T04:11:22.115Z,999.27
2019-01-22T04:12:22.039Z,999.29
2019-01-22T04:13:22.041Z,999.30
2019-01-22T04:14:22.007Z,999.26
2019-01-22T04:15:21.990Z,999.26
2019-01-22T04:16:21.991Z,999.21
2019-01-22T04:17:21.924Z,999.20
2019-01-22T04:18:21.898Z,999.21
2019-01-22T04:19:21.926Z,999.14
2019-01-22T04:20:21.851Z,999.19
2019-01-22T04:21:21.850Z,999.17
2019-01-22T04:22:21.802Z,999.20
2019-01-22T04:23:21.806Z,999.18
2019-01-22T04:24:21.784Z,999.16
2019-01-22T04:25:21.744Z,999.14
2019-01-22T04:26:21.707Z,999.14
2019-01-22T04:27:21.691Z,999.09
2019-01-22T04:28:21.727Z,999.09
2019-01-22T04:29:21.647Z,999.06
2019-01-22T04:30:21.622Z,999.06
2019-01-22T04:31:21.599Z,999.06
2019-01-22T04:32:21.573Z,999.01
2019-01-22T04:33:21.549Z,998.99
2019-01-22T04:34:21.670Z,998.96
2019-01-22T04:35:21.505Z,999.01
2019-01-22T04:36:21.475Z,998.97
2019-01-22T04:37:21.460Z,998.95
2019-01-22T04:38:21.417Z,998.92
2019-01-22T04:39:21.413Z,998.91
2019-01-22T04:40:21.413Z,998.90
2019-01-22T04:41:21.360Z,998.87
2019-01-22T04:42:21.325Z,998.87
2019-01-22T04:43:21.317Z,998.88
2019-01-22T04:44:21.287Z,998.89
2019-01-22T04:45:21.449Z,998.84
2019-01-22T04:46:21.236Z,998.85
2019-01-22T04:47:21.212Z,998.82
2019-01-22T04:48:21.175Z,998.79
2019-01-22T04:49:21.168Z,998.84
2019-01-22T04:50:21.141Z,998.81
2019-01-22T04:51:21.254Z,998.83
2019-01-22T04:52:21.085Z,998.84
2019-01-22T04:53:21.063Z,998.80
2019-01-22T04:54:21.037Z,998.77
2019-01-22T04:55:21.014Z,998.78
2019-01-22T04:56:20.992Z,998.80
2019-01-22T04:57:20.976Z,998.81
2019-01-22T04:58:20.941Z,998.79
2019-01-22T04:59:20.982Z,998.83
2019-01-22T05:00:20.892Z,998.79
2019-01-22T05:01:20.910Z,998.77
2019-01-22T05:02:20.848Z,998.77
2019-01-22T05:03:20.835Z,998.75
2019-01-22T05:04:20.800Z,998.77
2019-01-22T05:05:20.784Z,998.72
2019-01-22T05:06:20.783Z,998.69
2019-01-22T05:07:20.770Z,998.67
2019-01-22T05:08:20.710Z,998.66
2019-01-22T05:09:20.687Z,998.61
2019-01-22T05:10:20.649Z,998.62
2019-01-22T05:11:20.629Z,998.59
2019-01-22T05:12:20.645Z,998.55
2019-01-22T05:13:20.585Z,998.51
2019-01-22T05:14:20.558Z,998.50
2019-01-22T05:15:20.696Z,998.46
2019-01-22T05:16:20.510Z,998.47
2019-01-22T05:17:20.521Z,998.46
2019-01-22T05:18:20.475Z,998.45
2019-01-22T05:19:20.449Z,998.39
2019-01-22T05:20:20.421Z,998.39
2019-01-22T05:21:20.397Z,998.38
2019-01-22T05:22:20.499Z,998.43
2019-01-22T05:23:20.342Z,998.43
2019-01-22T05:24:20.328Z,998.43
2019-01-22T05:25:20.308Z,998.43
2019-01-22T05:26:20.282Z,998.46
2019-01-22T05:27:20.240Z,998.38
2019-01-22T05:28:20.249Z,998.36
2019-01-22T05:29:20.204Z,998.34
2019-01-22T05:30:20.191Z,998.32
2019-01-22T05:31:20.148Z,998.34
2019-01-22T05:32:20.133Z,998.33
2019-01-22T05:33:20.152Z,998.33
2019-01-22T05:34:20.120Z,998.33
2019-01-22T05:35:20.057Z,998.32
2019-01-22T05:36:20.029Z,998.31
2019-01-22T05:37:20.019Z,998.26
2019-01-22T05:38:19.981Z,998.23
2019-01-22T05:39:20.003Z,998.25
2019-01-22T05:40:19.928Z,998.19
2019-01-22T05:41:19.909Z,998.17
2019-01-22T05:42:19.880Z,998.13
2019-01-22T05:43:19.904Z,998.11
2019-01-22T05:44:19.834Z,998.12
2019-01-22T05:45:19.991Z,998.07
2019-01-22T05:46:19.815Z,998.05
2019-01-22T05:47:19.763Z,998.03
2019-01-22T05:48:19.748Z,997.99
2019-01-22T05:49:19.720Z,997.99
2019-01-22T05:50:19.690Z,997.95
2019-01-22T05:51:19.685Z,997.90
2019-01-22T05:52:19.641Z,997.93
2019-01-22T05:53:19.621Z,997.91
2019-01-22T05:54:25.183Z,997.91
2019-01-22T05:55:19.588Z,997.89
2019-01-22T05:56:19.553Z,997.85
2019-01-22T05:57:19.534Z,997.89
2019-01-22T05:58:19.507Z,997.89
2019-01-22T05:59:19.473Z,997.85
2019-01-22T06:00:19.487Z,997.88
2019-01-22T06:01:19.424Z,997.89
2019-01-22T06:02:19.436Z,997.83
2019-01-22T06:03:19.387Z,997.85
2019-01-22T06:04:19.350Z,997.83
2019-01-22T06:05:19.375Z,997.88
2019-01-22T06:06:19.324Z,997.85
2019-01-22T06:07:19.289Z,997.83
2019-01-22T06:08:19.260Z,997.79
2019-01-22T06:09:19.237Z,997.80
2019-01-22T06:10:19.316Z,997.80
2019-01-22T06:11:19.197Z,997.74
2019-01-22T06:12:19.162Z,997.77
2019-01-22T06:13:19.136Z,997.77
2019-01-22T06:14:19.123Z,997.75
2019-01-22T06:15:19.284Z,997.76
2019-01-22T06:16:19.084Z,997.74
2019-01-22T06:17:19.049Z,997.75
2019-01-22T06:18:19.050Z,997.75
2019-01-22T06:19:18.999Z,997.73
2019-01-22T06:20:18.969Z,997.66
2019-01-22T06:21:18.948Z,997.64
2019-01-22T06:22:18.928Z,997.62
2019-01-22T06:23:18.934Z,997.64
2019-01-22T06:24:18.870Z,997.62
2019-01-22T06:25:18.861Z,997.58
2019-01-22T06:26:18.820Z,997.57
2019-01-22T06:27:18.800Z,997.55
2019-01-22T06:28:18.830Z,997.51
2019-01-22T06:29:18.742Z,997.50
2019-01-22T06:30:18.738Z,997.50
2019-01-22T06:31:18.700Z,997.50
2019-01-22T06:32:18.684Z,997.48
2019-01-22T06:33:18.660Z,997.54
2019-01-22T06:34:18.643Z,997.48
2019-01-22T06:35:18.615Z,997.49
2019-01-22T06:36:18.583Z,997.46
2019-01-22T06:37:18.562Z,997.46
2019-01-22T06:38:18.540Z,997.47
2019-01-22T06:39:18.541Z,997.40
2019-01-22T06:40:18.495Z,997.46
2019-01-22T06:41:18.454Z,997.42
2019-01-22T06:42:18.432Z,997.44
2019-01-22T06:43:18.421Z,997.41
2019-01-22T06:44:18.422Z,997.41
2019-01-22T06:45:18.595Z,997.45
2019-01-22T06:46:18.379Z,997.40
2019-01-22T06:47:18.324Z,997.40
2019-01-22T06:48:18.289Z,997.42
2019-01-22T06:49:18.266Z,997.40
2019-01-22T06:50:18.243Z,997.41
2019-01-22T06:51:18.284Z,997.35
2019-01-22T06:52:18.189Z,997.37
2019-01-22T06:53:18.165Z,997.36
2019-01-22T06:54:18.148Z,997.35
2019-01-22T06:55:18.125Z,997.36
2019-01-22T06:56:18.109Z,997.33
2019-01-22T06:57:18.120Z,997.29
2019-01-22T06:58:18.056Z,997.27
2019-01-22T06:59:18.029Z,997.29
2019-01-22T07:00:18.005Z,997.23
2019-01-22T07:01:18.123Z,997.21
2019-01-22T07:02:17.957Z,997.27
2019-01-22T07:03:17.921Z,997.23
2019-01-22T07:04:17.909Z,997.21
2019-01-22T07:05:17.876Z,997.21
2019-01-22T07:06:17.865Z,997.20
2019-01-22T07:07:17.859Z,997.21
2019-01-22T07:08:17.812Z,997.18
2019-01-22T07:09:17.783Z,997.17
2019-01-22T07:10:17.753Z,997.20
2019-01-22T07:11:17.732Z,997.18
2019-01-22T07:12:17.772Z,997.17
2019-01-22T07:13:17.686Z,997.16
2019-01-22T07:14:17.657Z,997.16
2019-01-22T07:15:17.879Z,997.18
2019-01-22T07:16:17.623Z,997.16
2019-01-22T07:17:17.634Z,997.13
2019-01-22T07:18:17.581Z,997.12
2019-01-22T07:19:17.545Z,997.11
2019-01-22T07:20:17.525Z,997.11
2019-01-22T07:21:17.485Z,997.07
2019-01-22T07:22:17.463Z,997.08
2019-01-22T07:23:17.485Z,997.07
2019-01-22T07:24:17.420Z,997.05
2019-01-22T07:25:17.390Z,997.04
2019-01-22T07:26:17.378Z,997.01
2019-01-22T07:27:17.351Z,996.97
2019-01-22T07:28:17.358Z,996.98
2019-01-22T07:29:17.311Z,996.96
2019-01-22T07:30:17.290Z,996.96
2019-01-22T07:31:17.243Z,996.96
2019-01-22T07:32:17.237Z,996.91
2019-01-22T07:33:17.271Z,996.92
2019-01-22T07:34:17.172Z,996.89
2019-01-22T07:35:17.154Z,996.94
2019-01-22T07:36:17.140Z,996.92
2019-01-22T07:37:17.101Z,996.92
2019-01-22T07:38:17.071Z,996.90
2019-01-22T07:39:17.055Z,996.91
2019-01-22T07:40:17.077Z,996.92
2019-01-22T07:41:17.009Z,996.91
2019-01-22T07:42:16.980Z,996.92
2019-01-22T07:43:16.954Z,996.89
2019-01-22T07:44:16.936Z,996.86
2019-01-22T07:45:16.908Z,996.85
2019-01-22T07:46:17.042Z,996.78
2019-01-22T07:47:16.870Z,996.78
2019-01-22T07:48:16.838Z,996.76
2019-01-22T07:49:16.822Z,996.77
2019-01-22T07:50:16.794Z,996.75
2019-01-22T07:51:16.759Z,996.74
2019-01-22T07:52:16.762Z,996.71
2019-01-22T07:53:16.711Z,996.71
2019-01-22T07:54:16.686Z,996.70
2019-01-22T07:55:16.679Z,996.72
2019-01-22T07:56:16.682Z,996.71
2019-01-22T07:57:16.631Z,996.68
2019-01-22T07:58:16.589Z,996.66
2019-01-22T07:59:16.578Z,996.63
2019-01-22T08:00:16.543Z,996.65
2019-01-22T08:01:16.537Z,996.59
2019-01-22T08:02:16.542Z,996.63
2019-01-22T08:03:16.476Z,996.60
2019-01-22T08:04:16.442Z,996.61
2019-01-22T08:05:16.420Z,996.59
2019-01-22T08:06:16.406Z,996.63
2019-01-22T08:07:16.411Z,996.58
2019-01-22T08:08:16.346Z,996.49
2019-01-22T08:09:16.342Z,996.54
2019-01-22T08:10:16.307Z,996.52
2019-01-22T08:11:16.429Z,996.48
2019-01-22T08:12:16.253Z,996.49
2019-01-22T08:13:16.225Z,996.49
2019-01-22T08:14:16.211Z,996.47
2019-01-22T08:15:16.191Z,996.49
2019-01-22T08:16:16.154Z,996.47
2019-01-22T08:17:16.166Z,996.46
2019-01-22T08:18:16.115Z,996.45
2019-01-22T08:19:16.079Z,996.44
2019-01-22T08:20:16.068Z,996.41
2019-01-22T08:21:16.050Z,996.39
2019-01-22T08:22:16.058Z,996.37
2019-01-22T08:23:16.008Z,996.33
2019-01-22T08:24:16.021Z,996.35
2019-01-22T08:25:15.944Z,996.39
2019-01-22T08:26:15.915Z,996.35
2019-01-22T08:27:15.903Z,996.31
2019-01-22T08:28:15.874Z,996.24
2019-01-22T08:29:15.841Z,996.25
2019-01-22T08:30:15.865Z,996.24
2019-01-22T08:31:15.793Z,996.20
2019-01-22T08:32:15.779Z,996.22
2019-01-22T08:33:15.743Z,996.23
2019-01-22T08:34:15.737Z,996.19
2019-01-22T08:35:15.708Z,996.22
2019-01-22T08:36:15.728Z,996.14
2019-01-22T08:37:15.654Z,996.15
2019-01-22T08:38:15.642Z,996.14
2019-01-22T08:39:15.623Z,996.11
2019-01-22T08:40:15.584Z,996.08
2019-01-22T08:41:15.564Z,996.08
2019-01-22T08:42:15.580Z,996.04
2019-01-22T08:43:15.511Z,996.05
2019-01-22T08:44:15.487Z,996.07
2019-01-22T08:45:15.465Z,996.05
2019-01-22T08:46:15.479Z,996.03
2019-01-22T08:47:15.414Z,996.05
2019-01-22T08:48:15.405Z,996.03
2019-01-22T08:49:15.520Z,996.03
2019-01-22T08:50:15.336Z,996.00
2019-01-22T08:51:15.447Z,996.03
2019-01-22T08:52:15.580Z,995.97
2019-01-22T08:53:15.277Z,995.95
2019-01-22T08:54:15.259Z,995.97
2019-01-22T08:55:15.239Z,995.96
2019-01-22T08:56:15.199Z,995.98
2019-01-22T08:57:15.223Z,995.95
2019-01-22T08:58:15.167Z,995.90
2019-01-22T08:59:15.133Z,995.92
2019-01-22T09:00:16.831Z,995.87
2019-01-22T09:01:15.119Z,995.86
2019-01-22T09:02:15.066Z,995.83
2019-01-22T09:03:15.071Z,995.82
2019-01-22T09:04:15.028Z,995.83
2019-01-22T09:05:15.001Z,995.80
2019-01-22T09:06:14.966Z,995.83
2019-01-22T09:07:14.983Z,995.81
2019-01-22T09:08:14.927Z,995.81
2019-01-22T09:09:14.901Z,995.75
2019-01-22T09:10:14.892Z,995.75
2019-01-22T09:11:14.856Z,995.75
2019-01-22T09:12:14.859Z,995.66
2019-01-22T09:13:14.806Z,995.70
2019-01-22T09:14:14.787Z,995.70
2019-01-22T09:15:14.758Z,995.69
2019-01-22T09:16:14.775Z,995.71
2019-01-22T09:17:14.731Z,995.63
2019-01-22T09:18:14.718Z,995.65
2019-01-22T09:19:14.670Z,995.63
2019-01-22T09:20:14.648Z,995.66
2019-01-22T09:21:14.616Z,995.61
2019-01-22T09:22:14.602Z,995.63
2019-01-22T09:23:14.620Z,995.66
2019-01-22T09:24:14.558Z,995.63
2019-01-22T09:25:14.886Z,995.66
2019-01-22T09:26:14.516Z,995.62
2019-01-22T09:27:14.487Z,995.63
2019-01-22T09:28:14.584Z,995.61
2019-01-22T09:29:14.450Z,995.60
2019-01-22T09:30:14.422Z,995.61
2019-01-22T09:31:14.391Z,995.62
2019-01-22T09:32:14.444Z,995.63
2019-01-22T09:33:14.404Z,995.61
2019-01-22T09:34:14.682Z,995.61
2019-01-22T09:35:14.389Z,995.57
2019-01-22T09:36:14.269Z,995.55
2019-01-22T09:37:14.248Z,995.49
2019-01-22T09:38:14.222Z,995.50
2019-01-22T09:39:15.792Z,995.49
2019-01-22T09:40:14.209Z,995.47
2019-01-22T09:41:14.157Z,995.45
2019-01-22T09:42:14.148Z,995.44
2019-01-22T09:43:14.124Z,995.43
2019-01-22T09:44:14.091Z,995.41
2019-01-22T09:45:14.092Z,995.41
2019-01-22T09:46:14.053Z,995.41
2019-01-22T09:47:14.021Z,995.40
2019-01-22T09:48:14.003Z,995.38
2019-01-22T09:49:13.976Z,995.38
2019-01-22T09:50:13.952Z,995.33
2019-01-22T09:51:13.932Z,995.34
2019-01-22T09:52:13.911Z,995.27
2019-01-22T09:53:13.891Z,995.25
2019-01-22T09:54:13.863Z,995.21
2019-01-22T09:55:13.854Z,995.19
2019-01-22T09:56:13.841Z,995.17
2019-01-22T09:57:13.795Z,995.15
2019-01-22T09:58:13.779Z,995.18
2019-01-22T09:59:13.763Z,995.14
2019-01-22T10:00:13.771Z,995.13
2019-01-22T10:01:13.711Z,995.13
2019-01-22T10:02:13.696Z,995.14
2019-01-22T10:03:13.684Z,995.07
2019-01-22T10:04:13.640Z,995.08
2019-01-22T10:05:13.609Z,995.06
2019-01-22T10:06:13.584Z,995.06
2019-01-22T10:07:13.580Z,995.03
2019-01-22T10:08:13.572Z,995.06
2019-01-22T10:09:13.528Z,995.05
2019-01-22T10:10:13.498Z,995.04
2019-01-22T10:11:13.502Z,995.01
2019-01-22T10:12:13.461Z,995.01
2019-01-22T10:13:13.424Z,994.95
2019-01-22T10:14:13.446Z,994.97
2019-01-22T10:15:13.683Z,994.97
2019-01-22T10:16:13.395Z,994.98
2019-01-22T10:17:13.341Z,994.96
2019-01-22T10:18:13.330Z,994.96
2019-01-22T10:19:13.308Z,994.98
2019-01-22T10:20:13.316Z,994.96
2019-01-22T10:21:13.260Z,994.93
2019-01-22T10:22:13.236Z,994.91
2019-01-22T10:23:14.094Z,994.87
2019-01-22T10:24:13.191Z,994.80
2019-01-22T10:25:13.172Z,994.81
2019-01-22T10:26:13.148Z,994.79
2019-01-22T10:27:13.117Z,994.81
2019-01-22T10:28:13.105Z,994.79
2019-01-22T10:29:13.085Z,994.78
2019-01-22T10:30:13.053Z,994.76
2019-01-22T10:31:13.065Z,994.78
2019-01-22T10:32:13.010Z,994.75
2019-01-22T10:33:12.999Z,994.75
2019-01-22T10:34:13.007Z,994.74
2019-01-22T10:35:12.951Z,994.68
2019-01-22T10:36:12.916Z,994.62
2019-01-22T10:37:12.897Z,994.64
2019-01-22T10:38:12.873Z,994.62
2019-01-22T10:39:12.850Z,994.59
2019-01-22T10:40:12.836Z,994.58
2019-01-22T10:41:12.808Z,994.60
2019-01-22T10:42:12.797Z,994.56
2019-01-22T10:43:12.766Z,994.54
2019-01-22T10:44:12.749Z,994.50
2019-01-22T10:45:12.720Z,994.46
2019-01-22T10:46:12.707Z,994.42
2019-01-22T10:47:12.673Z,994.39
2019-01-22T10:48:12.691Z,994.37
2019-01-22T10:49:12.665Z,994.37
2019-01-22T10:50:12.609Z,994.30
2019-01-22T10:51:12.599Z,994.33
2019-01-22T10:52:12.575Z,994.27
2019-01-22T10:53:12.544Z,994.25
2019-01-22T10:54:12.590Z,994.19
2019-01-22T10:55:12.511Z,994.20
2019-01-22T10:56:12.480Z,994.16
2019-01-22T10:57:12.463Z,994.11
2019-01-22T10:58:12.444Z,994.09
2019-01-22T10:59:12.413Z,994.08
2019-01-22T11:00:12.426Z,994.07
2019-01-22T11:01:12.365Z,994.05
2019-01-22T11:02:12.343Z,994.05
2019-01-22T11:03:12.321Z,994.02
2019-01-22T11:04:12.447Z,994.07
2019-01-22T11:05:12.292Z,994.07
2019-01-22T11:06:12.275Z,994.02
2019-01-22T11:07:12.236Z,994.02
2019-01-22T11:08:12.226Z,994.01
2019-01-22T11:09:12.209Z,994.00
2019-01-22T11:10:12.209Z,993.96
2019-01-22T11:11:12.160Z,993.97
2019-01-22T11:12:12.121Z,993.95
2019-01-22T11:13:12.116Z,993.89
2019-01-22T11:14:12.112Z,993.87
2019-01-22T11:15:12.311Z,993.83
2019-01-22T11:16:12.045Z,993.81
2019-01-22T11:17:12.031Z,993.83
2019-01-22T11:18:12.005Z,993.78
2019-01-22T11:19:12.002Z,993.81
2019-01-22T11:20:11.984Z,993.79
2019-01-22T11:21:11.972Z,993.80
2019-01-22T11:22:11.906Z,993.72
2019-01-22T11:23:12.188Z,993.71
2019-01-22T11:24:11.937Z,993.67
2019-01-22T11:25:11.844Z,993.69
2019-01-22T11:26:11.833Z,993.67
2019-01-22T11:27:11.799Z,993.66
2019-01-22T11:28:11.799Z,993.66
2019-01-22T11:29:11.765Z,993.64
2019-01-22T11:30:11.777Z,993.67
2019-01-22T11:31:11.749Z,993.60
2019-01-22T11:32:11.713Z,993.59
2019-01-22T11:33:11.683Z,993.55
2019-01-22T11:34:11.651Z,993.58
2019-01-22T11:35:11.638Z,993.53
2019-01-22T11:36:11.767Z,993.55
2019-01-22T11:37:11.590Z,993.54
2019-01-22T11:38:12.616Z,993.48
2019-01-22T11:39:11.544Z,993.49
2019-01-22T11:40:11.532Z,993.46
2019-01-22T11:41:11.513Z,993.47
2019-01-22T11:42:11.629Z,993.45
2019-01-22T11:43:11.462Z,993.42
2019-01-22T11:44:11.435Z,993.40
2019-01-22T11:45:11.409Z,993.35
2019-01-22T11:46:11.392Z,993.35
2019-01-22T11:47:11.374Z,993.29
2019-01-22T11:48:11.350Z,993.35
2019-01-22T11:49:11.330Z,993.29
2019-01-22T11:50:11.312Z,993.26
2019-01-22T11:51:11.293Z,993.29
2019-01-22T11:52:11.277Z,993.26
2019-01-22T11:53:11.277Z,993.23
2019-01-22T11:54:11.218Z,993.26
2019-01-22T11:55:11.210Z,993.24
2019-01-22T11:56:11.194Z,993.23
2019-01-22T11:57:11.163Z,993.18
2019-01-22T11:58:11.153Z,993.16
2019-01-22T11:59:11.118Z,993.13
2019-01-22T12:00:11.105Z,993.14
2019-01-22T12:01:11.079Z,993.15
2019-01-22T12:02:11.054Z,993.09
2019-01-22T12:03:11.074Z,993.05
2019-01-22T12:04:11.011Z,993.04
2019-01-22T12:05:10.984Z,993.00
2019-01-22T12:06:11.021Z,992.96
2019-01-22T12:07:10.940Z,992.94
2019-01-22T12:08:10.929Z,992.90
2019-01-22T12:09:10.894Z,992.90
2019-01-22T12:10:10.881Z,992.85
2019-01-22T12:11:10.867Z,992.85
2019-01-22T12:12:10.876Z,992.79
2019-01-22T12:13:10.817Z,992.78
2019-01-22T12:14:10.806Z,992.75
2019-01-22T12:15:10.857Z,992.76
2019-01-22T12:16:10.776Z,992.73
2019-01-22T12:17:10.752Z,992.72
2019-01-22T12:18:10.709Z,992.70
2019-01-22T12:19:10.719Z,992.66
2019-01-22T12:20:10.663Z,992.66
2019-01-22T12:21:10.660Z,992.67
2019-01-22T12:22:10.646Z,992.64